Time,TemperatureF,DewpointF,PressureIn,WindDirection,WindDirectionDegrees,WindSpeedMPH,WindSpeedGustMPH,Humidity,HourlyPrecipIn,Conditions,Clouds,dailyrainin,SoftwareType,DateUTC
2013-05-05 00:02:00,68.4,67.0,29.83,West,260,0.0,5.0,94,0.00,,,0.00,weatherlink.com 1.10,2013-05-05 04:02:00,
2013-05-05 00:17:00,67.9,66.0,29.83,West,281,1.0,5.0,94,0.00,,,0.00,weatherlink.com 1.10,2013-05-05 04:17:00,
2013-05-05 00:32:00,67.3,66.0,29.83,SSE,162,0.0,2.0,95,0.00,,,0.00,weatherlink.com 1.10,2013-05-05 04:32:00,
2013-05-05 00:47:00,66.9,66.0,29.83,WNW,287,0.0,5.0,95,0.00,,,0.00,weatherlink.com 1.10,2013-05-05 04:47:00,
2013-05-05 01:02:00,66.7,65.0,29.82,WSW,250,1.0,6.0,94,0.00,,,0.00,weatherlink.com 1.10,2013-05-05 05:02:00,
2013-05-05 01:17:00,66.8,65.0,29.82,NE,43,0.0,9.0,93,0.00,,,0.00,weatherlink.com 1.10,2013-05-05 05:17:00,
2013-05-05 01:32:00,66.6,65.0,29.82,WSW,245,2.0,7.0,93,0.00,,,0.00,weatherlink.com 1.10,2013-05-05 05:32:00,
2013-05-05 01:47:00,66.3,65.0,29.82,NNW,341,1.0,4.0,94,0.00,,,0.00,weatherlink.com 1.10,2013-05-05 05:47:00,
2013-05-05 02:02:00,66.0,65.0,29.82,NW,326,4.0,5.0,95,0.00,,,0.00,weatherlink.com 1.10,2013-05-05 06:02:00,
2013-05-05 02:17:00,65.7,64.0,29.82,NNW,343,3.0,6.0,95,0.00,,,0.00,weatherlink.com 1.10,2013-05-05 06:17:00,
2013-05-05 02:32:00,65.4,64.0,29.81,NNW,338,0.0,4.0,95,0.00,,,0.00,weatherlink.com 1.10,2013-05-05 06:32:00,
2013-05-05 02:47:00,65.2,64.0,29.81,WSW,256,0.0,3.0,95,0.00,,,0.00,weatherlink.com 1.10,2013-05-05 06:47:00,
2013-05-05 03:02:00,65.3,64.0,29.81,WNW,283,2.0,5.0,94,0.00,,,0.00,weatherlink.com 1.10,2013-05-05 07:02:00,
2013-05-05 03:17:00,65.4,63.0,29.81,SW,232,1.0,5.0,92,0.00,,,0.00,weatherlink.com 1.10,2013-05-05 07:17:00,
2013-05-05 03:32:00,65.7,63.0,29.81,WSW,249,0.0,3.0,90,0.00,,,0.00,weatherlink.com 1.10,2013-05-05 07:32:00,
2013-05-05 03:47:00,65.9,62.0,29.81,SE,145,0.0,4.0,87,0.00,,,0.00,weatherlink.com 1.10,2013-05-05 07:47:00,
2013-05-05 04:02:00,66.1,61.0,29.81,WNW,297,1.0,6.0,84,0.00,,,0.00,weatherlink.com 1.10,2013-05-05 08:02:00,
2013-05-05 04:17:00,65.8,61.0,29.82,ESE,119,1.0,6.0,83,0.00,,,0.00,weatherlink.com 1.10,2013-05-05 08:17:00,
2013-05-05 04:32:00,65.3,60.0,29.82,WSW,248,0.0,5.0,83,0.00,,,0.00,weatherlink.com 1.10,2013-05-05 08:32:00,
2013-05-05 04:47:00,65.2,60.0,29.83,WNW,297,3.0,6.0,83,0.00,,,0.00,weatherlink.com 1.10,2013-05-05 08:47:00,
2013-05-05 05:02:00,64.9,59.0,29.83,West,260,1.0,6.0,82,0.00,,,0.00,weatherlink.com 1.10,2013-05-05 09:02:00,
2013-05-05 05:18:00,64.3,58.0,29.83,WNW,298,1.0,5.0,81,0.00,,,0.00,weatherlink.com 1.10,2013-05-05 09:18:00,
2013-05-05 05:33:00,63.8,58.0,29.83,WSW,252,0.0,8.0,80,0.00,,,0.00,weatherlink.com 1.10,2013-05-05 09:33:00,
2013-05-05 05:48:00,63.4,57.0,29.84,SW,214,1.0,5.0,79,0.00,,,0.00,weatherlink.com 1.10,2013-05-05 09:48:00,
2013-05-05 06:03:00,63.3,56.0,29.84,West,263,0.0,5.0,78,0.00,,,0.00,weatherlink.com 1.10,2013-05-05 10:03:00,
2013-05-05 06:18:00,63.4,56.0,29.85,SW,235,3.0,7.0,77,0.00,,,0.00,weatherlink.com 1.10,2013-05-05 10:18:00,
2013-05-05 06:33:00,63.0,56.0,29.86,West,265,0.0,4.0,78,0.00,,,0.00,weatherlink.com 1.10,2013-05-05 10:33:00,
2013-05-05 06:48:00,62.7,55.0,29.86,NW,308,1.0,8.0,77,0.00,,,0.00,weatherlink.com 1.10,2013-05-05 10:48:00,
2013-05-05 07:03:00,62.7,55.0,29.87,WNW,285,0.0,7.0,75,0.00,,,0.00,weatherlink.com 1.10,2013-05-05 11:03:00,
2013-05-05 07:18:00,62.5,55.0,29.88,WSW,255,0.0,4.0,75,0.00,,,0.00,weatherlink.com 1.10,2013-05-05 11:18:00,
2013-05-05 07:33:00,62.7,55.0,29.89,West,265,0.0,6.0,75,0.00,,,0.00,weatherlink.com 1.10,2013-05-05 11:33:00,
2013-05-05 07:48:00,63.7,55.0,29.89,ESE,105,0.0,7.0,72,0.00,,,0.00,weatherlink.com 1.10,2013-05-05 11:48:00,
2013-05-05 08:03:00,64.8,54.0,29.89,WSW,258,4.0,10.0,69,0.00,,,0.00,weatherlink.com 1.10,2013-05-05 12:03:00,
2013-05-05 08:18:00,65.0,54.0,29.90,NW,321,6.0,8.0,67,0.00,,,0.00,weatherlink.com 1.10,2013-05-05 12:18:00,
2013-05-05 08:33:00,66.3,54.0,29.90,West,278,1.0,11.0,64,0.00,,,0.00,weatherlink.com 1.10,2013-05-05 12:33:00,
2013-05-05 08:48:00,67.8,53.0,29.90,NW,309,7.0,10.0,60,0.00,,,0.00,weatherlink.com 1.10,2013-05-05 12:48:00,
2013-05-05 09:03:00,68.4,53.0,29.91,NNW,329,5.0,14.0,59,0.00,,,0.00,weatherlink.com 1.10,2013-05-05 13:03:00,
2013-05-05 09:18:00,67.7,52.0,29.91,NE,40,3.0,12.0,58,0.00,,,0.00,weatherlink.com 1.10,2013-05-05 13:18:00,
2013-05-05 09:33:00,68.3,53.0,29.91,NNE,20,3.0,11.0,58,0.00,,,0.00,weatherlink.com 1.10,2013-05-05 13:33:00,
2013-05-05 09:48:00,69.3,54.0,29.92,NW,313,2.0,10.0,58,0.00,,,0.00,weatherlink.com 1.10,2013-05-05 13:48:00,
2013-05-05 10:03:00,70.1,54.0,29.93,ESE,123,4.0,12.0,56,0.00,,,0.00,weatherlink.com 1.10,2013-05-05 14:03:00,
2013-05-05 10:18:00,70.1,52.0,29.93,NNW,343,6.0,9.0,53,0.00,,,0.00,weatherlink.com 1.10,2013-05-05 14:18:00,
2013-05-05 10:33:00,70.4,52.0,29.93,NNE,12,15.0,18.0,52,0.00,,,0.00,weatherlink.com 1.10,2013-05-05 14:33:00,
2013-05-05 10:48:00,70.9,51.0,29.94,NE,43,8.0,13.0,49,0.00,,,0.00,weatherlink.com 1.10,2013-05-05 14:48:00,
2013-05-05 11:03:00,72.5,52.0,29.94,NW,312,2.0,9.0,48,0.00,,,0.00,weatherlink.com 1.10,2013-05-05 15:03:00,
2013-05-05 11:18:00,71.6,51.0,29.95,NE,44,0.0,15.0,48,0.00,,,0.00,weatherlink.com 1.10,2013-05-05 15:18:00,
2013-05-05 11:33:00,72.4,52.0,29.94,NE,37,2.0,8.0,49,0.00,,,0.00,weatherlink.com 1.10,2013-05-05 15:33:00,
2013-05-05 11:48:00,73.0,51.0,29.94,NNE,27,6.0,12.0,46,0.00,,,0.00,weatherlink.com 1.10,2013-05-05 15:48:00,
2013-05-05 12:04:00,73.1,51.0,29.94,WNW,292,4.0,14.0,46,0.00,,,0.00,weatherlink.com 1.10,2013-05-05 16:04:00,
2013-05-05 12:19:00,74.4,51.0,29.93,NNE,25,8.0,14.0,44,0.00,,,0.00,weatherlink.com 1.10,2013-05-05 16:19:00,
2013-05-05 12:34:00,73.8,51.0,29.93,NW,316,5.0,14.0,45,0.00,,,0.00,weatherlink.com 1.10,2013-05-05 16:34:00,
2013-05-05 12:49:00,74.0,51.0,29.93,ENE,58,3.0,9.0,45,0.00,,,0.00,weatherlink.com 1.10,2013-05-05 16:49:00,
2013-05-05 13:04:00,74.8,51.0,29.93,WSW,252,3.0,8.0,44,0.00,,,0.00,weatherlink.com 1.10,2013-05-05 17:04:00,
2013-05-05 13:19:00,75.1,52.0,29.93,SW,224,2.0,10.0,45,0.00,,,0.00,weatherlink.com 1.10,2013-05-05 17:19:00,
2013-05-05 13:34:00,75.5,51.0,29.93,NE,34,2.0,9.0,42,0.00,,,0.00,weatherlink.com 1.10,2013-05-05 17:34:00,
2013-05-05 13:49:00,75.8,52.0,29.93,NW,311,3.0,7.0,44,0.00,,,0.00,weatherlink.com 1.10,2013-05-05 17:49:00,
2013-05-05 14:04:00,75.2,52.0,29.93,WSW,257,1.0,8.0,45,0.00,,,0.00,weatherlink.com 1.10,2013-05-05 18:04:00,
2013-05-05 14:19:00,75.4,53.0,29.93,WSW,242,4.0,9.0,46,0.00,,,0.00,weatherlink.com 1.10,2013-05-05 18:19:00,
2013-05-05 14:34:00,75.6,52.0,29.93,NNE,31,2.0,10.0,44,0.00,,,0.00,weatherlink.com 1.10,2013-05-05 18:34:00,
2013-05-05 14:49:00,75.4,52.0,29.93,NW,321,4.0,9.0,44,0.00,,,0.00,weatherlink.com 1.10,2013-05-05 18:49:00,
2013-05-05 15:04:00,75.9,52.0,29.92,West,278,4.0,8.0,44,0.00,,,0.00,weatherlink.com 1.10,2013-05-05 19:04:00,
2013-05-05 15:19:00,76.0,52.0,29.93,West,266,5.0,10.0,43,0.00,,,0.00,weatherlink.com 1.10,2013-05-05 19:19:00,
2013-05-05 15:34:00,76.5,54.0,29.92,NNW,332,0.0,9.0,45,0.00,,,0.00,weatherlink.com 1.10,2013-05-05 19:34:00,
2013-05-05 15:49:00,76.1,53.0,29.92,WSW,248,6.0,9.0,44,0.00,,,0.00,weatherlink.com 1.10,2013-05-05 19:49:00,
2013-05-05 16:04:00,75.4,54.0,29.91,SE,132,4.0,11.0,47,0.00,,,0.00,weatherlink.com 1.10,2013-05-05 20:04:00,
2013-05-05 16:19:00,75.0,54.0,29.91,WSW,245,1.0,10.0,48,0.00,,,0.00,weatherlink.com 1.10,2013-05-05 20:19:00,
2013-05-05 16:34:00,74.9,54.0,29.91,West,270,2.0,8.0,49,0.00,,,0.00,weatherlink.com 1.10,2013-05-05 20:34:00,
2013-05-05 16:49:00,75.3,54.0,29.91,West,280,3.0,9.0,48,0.00,,,0.00,weatherlink.com 1.10,2013-05-05 20:49:00,
2013-05-05 17:04:00,76.0,55.0,29.91,NNW,330,0.0,7.0,48,0.00,,,0.00,weatherlink.com 1.10,2013-05-05 21:04:00,
2013-05-05 17:19:00,74.7,55.0,29.91,West,269,2.0,9.0,51,0.00,,,0.00,weatherlink.com 1.10,2013-05-05 21:19:00,
2013-05-05 17:34:00,74.5,56.0,29.92,SSW,203,0.0,9.0,53,0.00,,,0.00,weatherlink.com 1.10,2013-05-05 21:34:00,
2013-05-05 17:49:00,74.3,56.0,29.91,WNW,295,3.0,10.0,53,0.00,,,0.00,weatherlink.com 1.10,2013-05-05 21:49:00,
2013-05-05 18:04:00,73.9,57.0,29.92,NNE,30,1.0,11.0,55,0.00,,,0.00,weatherlink.com 1.10,2013-05-05 22:04:00,
2013-05-05 18:19:00,73.8,57.0,29.92,WNW,284,3.0,10.0,57,0.00,,,0.00,weatherlink.com 1.10,2013-05-05 22:19:00,
2013-05-05 18:34:00,73.1,57.0,29.92,SSW,208,1.0,10.0,58,0.00,,,0.00,weatherlink.com 1.10,2013-05-05 22:34:00,
2013-05-05 18:49:00,72.4,58.0,29.92,SW,231,1.0,7.0,60,0.00,,,0.00,weatherlink.com 1.10,2013-05-05 22:49:00,
2013-05-05 19:04:00,71.5,57.0,29.93,WSW,239,0.0,8.0,61,0.00,,,0.00,weatherlink.com 1.10,2013-05-05 23:04:00,
2013-05-05 19:19:00,70.2,58.0,29.93,WSW,245,1.0,6.0,65,0.00,,,0.00,weatherlink.com 1.10,2013-05-05 23:19:00,
2013-05-05 19:34:00,69.7,58.0,29.93,West,264,1.0,5.0,66,0.00,,,0.00,weatherlink.com 1.10,2013-05-05 23:34:00,
2013-05-05 19:49:00,68.9,58.0,29.93,WSW,240,0.0,4.0,68,0.00,,,0.00,weatherlink.com 1.10,2013-05-05 23:49:00,
2013-05-05 20:04:00,68.4,57.0,29.92,SSW,212,1.0,3.0,68,0.00,,,0.00,weatherlink.com 1.10,2013-05-06 00:04:00,
2013-05-05 20:19:00,67.7,58.0,29.93,West,262,1.0,5.0,70,0.00,,,0.00,weatherlink.com 1.10,2013-05-06 00:19:00,
2013-05-05 20:34:00,67.3,58.0,29.93,WSW,238,0.0,2.0,72,0.00,,,0.00,weatherlink.com 1.10,2013-05-06 00:34:00,
2013-05-05 20:49:00,66.8,58.0,29.93,West,267,1.0,1.0,73,0.00,,,0.00,weatherlink.com 1.10,2013-05-06 00:49:00,
2013-05-05 21:04:00,66.6,58.0,29.94,West,259,0.0,0.0,73,0.00,,,0.00,weatherlink.com 1.10,2013-05-06 01:04:00,
2013-05-05 21:19:00,66.5,58.0,29.94,SW,232,0.0,4.0,74,0.00,,,0.00,weatherlink.com 1.10,2013-05-06 01:19:00,
2013-05-05 21:34:00,66.6,58.0,29.94,SSW,209,3.0,4.0,75,0.00,,,0.00,weatherlink.com 1.10,2013-05-06 01:34:00,
2013-05-05 21:49:00,67.4,59.0,29.94,WSW,251,0.0,5.0,74,0.00,,,0.00,weatherlink.com 1.10,2013-05-06 01:49:00,
2013-05-05 22:04:00,67.6,59.0,29.94,WSW,245,0.0,4.0,74,0.00,,,0.00,weatherlink.com 1.10,2013-05-06 02:04:00,
2013-05-05 22:19:00,68.1,59.0,29.95,WSW,250,0.0,8.0,73,0.00,,,0.00,weatherlink.com 1.10,2013-05-06 02:19:00,
2013-05-05 22:34:00,68.3,59.0,29.95,SW,228,0.0,6.0,72,0.00,,,0.00,weatherlink.com 1.10,2013-05-06 02:34:00,
2013-05-05 22:49:00,68.3,59.0,29.95,South,191,0.0,5.0,72,0.00,,,0.00,weatherlink.com 1.10,2013-05-06 02:49:00,
2013-05-05 23:04:00,68.1,59.0,29.95,WSW,250,2.0,5.0,73,0.00,,,0.00,weatherlink.com 1.10,2013-05-06 03:04:00,
2013-05-05 23:19:00,68.3,59.0,29.95,SW,215,0.0,5.0,73,0.00,,,0.00,weatherlink.com 1.10,2013-05-06 03:19:00,
2013-05-05 23:34:00,68.4,59.0,29.95,West,260,2.0,7.0,73,0.00,,,0.00,weatherlink.com 1.10,2013-05-06 03:34:00,
2013-05-05 23:49:00,68.5,60.0,29.95,WSW,245,2.0,5.0,73,0.00,,,0.00,weatherlink.com 1.10,2013-05-06 03:49:00,